createdAt,value
2024-05-09T00:01:49.769Z,14.80
2024-05-09T00:04:19.985Z,15.10
2024-05-09T00:06:52.582Z,12.80
2024-05-09T00:09:22.785Z,12.63
2024-05-09T00:11:53.162Z,11.80
2024-05-09T00:14:23.220Z,12.40
2024-05-09T00:16:53.282Z,12.80
2024-05-09T00:19:24.272Z,14.50
2024-05-09T00:21:56.871Z,13.67
2024-05-09T00:24:26.710Z,13.50
2024-05-09T00:26:56.697Z,13.13
2024-05-09T00:29:26.763Z,15.13
2024-05-09T00:31:56.777Z,15.27
2024-05-09T00:34:26.952Z,14.10
2024-05-09T00:36:59.546Z,14.50
2024-05-09T00:39:29.644Z,16.30
2024-05-09T00:42:00.368Z,15.17
2024-05-09T00:44:30.362Z,15.90
2024-05-09T00:47:00.733Z,14.30
2024-05-09T00:49:32.153Z,13.50
2024-05-09T00:52:09.297Z,16.20
2024-05-09T00:54:39.381Z,17.47
2024-05-09T00:57:09.516Z,15.63
2024-05-09T00:59:39.710Z,14.97
2024-05-09T01:02:09.927Z,15.27
2024-05-09T01:04:40.164Z,14.00
2024-05-09T01:07:15.305Z,14.77
2024-05-09T01:09:45.116Z,15.60
2024-05-09T01:12:15.307Z,13.80
2024-05-09T01:14:45.718Z,16.07
2024-05-09T01:17:16.427Z,17.23
2024-05-09T01:19:46.995Z,17.50
2024-05-09T01:22:19.688Z,15.53
2024-05-09T01:24:52.747Z,15.70
2024-05-09T01:27:24.515Z,14.90
2024-05-09T01:29:54.499Z,14.20
2024-05-09T01:32:24.607Z,17.63
2024-05-09T01:34:54.633Z,15.87
2024-05-09T01:37:24.556Z,17.63
2024-05-09T01:39:57.119Z,17.20
2024-05-09T01:42:27.797Z,17.60
2024-05-09T01:44:57.723Z,16.13
2024-05-09T01:47:28.118Z,15.83
2024-05-09T01:49:58.213Z,16.50
2024-05-09T01:52:28.172Z,18.47
2024-05-09T01:55:04.515Z,16.83
2024-05-09T01:57:36.644Z,17.43
2024-05-09T02:00:07.995Z,17.83
2024-05-09T02:02:40.431Z,16.60
2024-05-09T02:05:10.867Z,12.97
2024-05-09T02:07:40.837Z,12.33
2024-05-09T02:10:20.189Z,16.37
2024-05-09T02:12:53.283Z,16.50
2024-05-09T02:15:23.146Z,15.10
2024-05-09T02:17:54.148Z,19.60
2024-05-09T02:20:33.138Z,18.03
2024-05-09T02:23:06.913Z,19.40
2024-05-09T02:25:39.968Z,18.10
2024-05-09T02:28:10.037Z,14.40
2024-05-09T02:30:41.961Z,14.40
2024-05-09T02:33:14.453Z,16.77
2024-05-09T02:35:44.927Z,16.97
2024-05-09T02:38:12.842Z,17.43
2024-05-09T02:40:45.760Z,16.17
2024-05-09T02:43:13.982Z,16.20
2024-05-09T02:45:43.973Z,18.57
2024-05-09T02:48:12.457Z,15.33
2024-05-09T02:50:44.403Z,16.30
2024-05-09T02:53:12.641Z,15.50
2024-05-09T02:55:45.389Z,18.13
2024-05-09T02:58:12.739Z,18.13
2024-05-09T03:00:43.275Z,15.40
2024-05-09T03:03:13.599Z,16.83
2024-05-09T03:05:45.848Z,14.00
2024-05-09T03:08:14.663Z,14.80
2024-05-09T03:10:47.877Z,15.30
2024-05-09T03:13:16.226Z,16.37
2024-05-09T03:15:46.526Z,15.10
2024-05-09T03:18:15.225Z,18.20
2024-05-09T03:20:46.362Z,14.27
2024-05-09T03:23:13.880Z,20.53
2024-05-09T03:25:43.915Z,15.67
2024-05-09T03:28:15.019Z,17.33
2024-05-09T03:30:46.647Z,16.53
2024-05-09T03:33:17.954Z,17.10
2024-05-09T03:35:49.858Z,17.83
2024-05-09T03:38:19.861Z,21.07
2024-05-09T03:40:51.126Z,19.17
2024-05-09T03:43:23.860Z,15.90
2024-05-09T03:45:51.357Z,19.87
2024-05-09T03:48:22.177Z,17.50
2024-05-09T03:50:50.710Z,18.23
2024-05-09T03:53:20.908Z,16.03
2024-05-09T03:55:49.933Z,16.17
2024-05-09T03:58:19.893Z,17.73
2024-05-09T04:00:49.903Z,20.53
2024-05-09T04:03:20.836Z,17.17
2024-05-09T04:05:48.271Z,21.53
2024-05-09T04:08:18.357Z,18.50
2024-05-09T04:10:45.966Z,19.70
2024-05-09T04:13:15.982Z,18.20
2024-05-09T04:15:44.312Z,19.10
2024-05-09T04:18:19.690Z,16.27
2024-05-09T04:20:47.063Z,19.03
2024-05-09T04:23:17.326Z,20.60
2024-05-09T04:25:45.782Z,19.30
2024-05-09T04:28:16.610Z,17.67
2024-05-09T04:30:44.375Z,18.33
2024-05-09T04:33:19.907Z,22.03
2024-05-09T04:35:49.521Z,22.60
2024-05-09T04:38:20.078Z,18.73
2024-05-09T04:40:47.811Z,19.57
2024-05-09T04:43:20.493Z,19.40
2024-05-09T04:45:47.849Z,20.30
2024-05-09T04:48:20.809Z,21.50
2024-05-09T04:50:48.287Z,21.30
2024-05-09T04:53:18.901Z,22.60
2024-05-09T04:55:46.434Z,23.90
2024-05-09T04:58:16.397Z,21.93
2024-05-09T05:00:44.514Z,24.13
2024-05-09T05:03:16.131Z,21.23
2024-05-09T05:05:47.651Z,20.30
2024-05-09T05:08:19.237Z,21.70
2024-05-09T05:10:48.673Z,25.10
2024-05-09T05:13:20.967Z,25.23
2024-05-09T05:15:51.330Z,26.03
2024-05-09T05:18:21.524Z,25.17
2024-05-09T05:20:51.829Z,24.40
2024-05-09T05:23:23.275Z,25.73
2024-05-09T05:25:53.448Z,22.73
2024-05-09T05:28:24.676Z,23.50
2024-05-09T05:30:52.704Z,25.17
2024-05-09T05:33:23.863Z,23.07
2024-05-09T05:35:54.146Z,22.57
2024-05-09T05:38:27.406Z,23.57
2024-05-09T05:40:56.257Z,20.53
2024-05-09T05:43:26.314Z,20.50
2024-05-09T05:45:53.605Z,20.60
2024-05-09T05:48:23.968Z,20.07
2024-05-09T05:50:54.116Z,18.10
2024-05-09T05:53:24.231Z,19.70
2024-05-09T05:55:51.790Z,17.80
2024-05-09T05:58:22.549Z,17.20
2024-05-09T06:00:53.343Z,17.83
2024-05-09T06:03:24.452Z,14.60
2024-05-09T06:05:54.546Z,15.07
2024-05-09T06:08:27.117Z,12.20
2024-05-09T06:10:56.958Z,11.70
2024-05-09T06:13:26.935Z,9.87
2024-05-09T06:15:54.616Z,11.70
2024-05-09T06:18:24.878Z,9.70
2024-05-09T06:20:54.959Z,8.37
2024-05-09T06:23:24.933Z,9.33
2024-05-09T06:25:53.072Z,8.87
2024-05-09T06:28:22.966Z,9.50
2024-05-09T06:30:50.240Z,8.47
2024-05-09T06:33:20.386Z,8.17
2024-05-09T06:35:47.833Z,7.90
2024-05-09T06:38:22.126Z,8.83
2024-05-09T06:40:49.638Z,8.30
2024-05-09T06:43:20.274Z,8.20
2024-05-09T06:45:48.841Z,7.20
2024-05-09T06:48:21.750Z,7.07
2024-05-09T06:50:51.298Z,7.90
2024-05-09T06:53:25.172Z,7.27
2024-05-09T06:55:52.861Z,7.00
2024-05-09T06:58:22.821Z,7.20
2024-05-09T07:00:50.282Z,8.87
2024-05-09T07:03:20.823Z,7.07
2024-05-09T07:05:49.521Z,6.80
2024-05-09T07:08:23.237Z,5.80
2024-05-09T07:10:50.676Z,5.80
2024-05-09T07:13:20.990Z,7.07
2024-05-09T07:15:48.234Z,6.70
2024-05-09T07:18:20.205Z,6.00
2024-05-09T07:20:49.847Z,5.83
2024-05-09T07:23:23.884Z,6.03
2024-05-09T07:25:51.572Z,5.83
2024-05-09T07:28:23.439Z,5.73
2024-05-09T07:30:50.839Z,5.97
2024-05-09T07:33:24.409Z,5.70
2024-05-09T07:35:52.691Z,4.90
2024-05-09T07:38:25.602Z,5.23
2024-05-09T07:40:52.951Z,5.47
2024-05-09T07:43:24.788Z,4.87
2024-05-09T07:45:54.788Z,5.67
2024-05-09T07:50:00.223Z,5.50
2024-05-09T07:53:53.439Z,5.10
2024-05-09T07:56:26.444Z,5.17
2024-05-09T07:58:55.591Z,4.70
2024-05-09T08:01:27.929Z,5.00
2024-05-09T08:03:55.714Z,5.13
2024-05-09T08:06:26.881Z,4.87
2024-05-09T08:08:59.158Z,4.47
2024-05-09T08:11:30.668Z,4.40
2024-05-09T08:13:58.122Z,4.20
2024-05-09T08:16:28.980Z,4.20
2024-05-09T08:18:56.627Z,5.17
2024-05-09T08:21:26.724Z,5.00
2024-05-09T08:23:56.738Z,4.57
2024-05-09T08:26:26.650Z,4.70
2024-05-09T08:28:53.908Z,5.10
2024-05-09T08:31:23.866Z,3.87
2024-05-09T08:33:52.279Z,5.33
2024-05-09T08:36:22.530Z,4.13
2024-05-09T08:38:49.815Z,4.73
2024-05-09T08:41:24.031Z,4.60
2024-05-09T08:43:53.009Z,4.20
2024-05-09T08:46:23.227Z,5.70
2024-05-09T08:48:56.624Z,5.00
2024-05-09T08:51:26.918Z,5.33
2024-05-09T08:53:55.206Z,5.63
2024-05-09T08:56:30.830Z,4.20
2024-05-09T08:59:01.840Z,5.33
2024-05-09T09:01:34.137Z,8.07
2024-05-09T09:04:05.308Z,5.17
2024-05-09T09:06:37.470Z,4.60
2024-05-09T09:09:05.468Z,9.60
2024-05-09T09:11:38.180Z,4.13
2024-05-09T09:14:05.520Z,5.37
2024-05-09T09:16:36.530Z,7.00
2024-05-09T09:19:05.559Z,4.53
2024-05-09T09:21:35.713Z,4.80
2024-05-09T09:24:03.236Z,4.90
2024-05-09T09:26:34.354Z,5.00
2024-05-09T09:29:05.172Z,4.50
2024-05-09T09:31:35.080Z,4.83
2024-05-09T09:34:07.626Z,4.03
2024-05-09T09:36:41.135Z,18.20
2024-05-09T09:39:10.029Z,3.83
2024-05-09T09:41:42.019Z,4.47
2024-05-09T09:44:12.217Z,4.50
2024-05-09T09:46:43.264Z,3.67
2024-05-09T09:49:12.394Z,4.70
2024-05-09T09:51:44.838Z,4.50
2024-05-09T09:54:14.908Z,4.63
2024-05-09T09:56:48.470Z,4.33
2024-05-09T09:59:19.711Z,4.03
2024-05-09T10:01:49.759Z,4.17
2024-05-09T10:04:18.993Z,4.27
2024-05-09T10:06:53.620Z,4.60
2024-05-09T10:09:21.850Z,4.40
2024-05-09T10:11:59.746Z,4.27
2024-05-09T10:14:33.485Z,4.00
2024-05-09T10:17:07.445Z,4.97
2024-05-09T10:19:35.616Z,4.23
2024-05-09T10:22:08.863Z,7.67
2024-05-09T10:24:50.628Z,4.33
2024-05-09T10:27:29.340Z,6.00
2024-05-09T10:30:06.910Z,7.90
2024-05-09T10:32:40.122Z,5.80
2024-05-09T10:35:11.683Z,4.37
2024-05-09T10:37:39.384Z,3.77
2024-05-09T10:40:17.244Z,4.50
2024-05-09T10:42:50.538Z,3.73
2024-05-09T10:45:24.766Z,4.20
2024-05-09T10:47:52.428Z,4.50
2024-05-09T10:50:28.506Z,3.93
2024-05-09T10:52:59.307Z,4.20
2024-05-09T10:55:29.647Z,4.40
2024-05-09T10:57:59.130Z,4.40
2024-05-09T11:00:36.891Z,4.17
2024-05-09T11:03:05.050Z,8.20
2024-05-09T11:05:36.477Z,7.33
2024-05-09T11:08:04.781Z,5.13
2024-05-09T11:10:35.792Z,4.73
2024-05-09T11:13:03.511Z,4.70
2024-05-09T11:15:43.915Z,4.37
2024-05-09T11:18:24.627Z,4.80
2024-05-09T11:20:56.576Z,5.03
2024-05-09T11:23:26.240Z,4.43
2024-05-09T11:25:57.362Z,3.47
2024-05-09T11:28:28.391Z,4.90
2024-05-09T11:31:10.967Z,5.33
2024-05-09T11:33:39.933Z,5.10
2024-05-09T11:36:11.272Z,3.93
2024-05-09T11:38:38.548Z,4.17
2024-05-09T11:41:09.386Z,4.40
2024-05-09T11:43:36.732Z,4.50
2024-05-09T11:46:09.391Z,4.20
2024-05-09T11:48:36.986Z,3.37
2024-05-09T11:51:07.772Z,3.90
2024-05-09T11:53:35.235Z,4.33
2024-05-09T11:56:05.528Z,4.27
2024-05-09T11:58:34.736Z,3.40
2024-05-09T12:01:05.068Z,3.80
2024-05-09T12:03:35.283Z,3.73
2024-05-09T12:06:07.696Z,3.83
2024-05-09T12:08:35.152Z,4.40
2024-05-09T12:11:06.813Z,4.27
2024-05-09T12:13:34.189Z,3.90
2024-05-09T12:16:04.539Z,3.80
2024-05-09T12:18:34.698Z,4.00
2024-05-09T12:21:05.073Z,4.57
2024-05-09T12:23:32.382Z,3.70
2024-05-09T12:26:03.453Z,4.20
2024-05-09T12:28:30.755Z,4.03
2024-05-09T12:31:00.790Z,3.67
2024-05-09T12:33:29.654Z,3.90
2024-05-09T12:36:02.731Z,3.80
2024-05-09T12:38:31.028Z,3.30
2024-05-09T12:41:01.003Z,3.27
2024-05-09T12:43:28.520Z,4.07
2024-05-09T12:45:58.645Z,3.83
2024-05-09T12:48:26.243Z,3.60
2024-05-09T12:50:57.640Z,3.60
2024-05-09T12:53:28.627Z,3.40
2024-05-09T12:56:02.342Z,3.83
2024-05-09T12:58:31.420Z,3.73
2024-05-09T13:01:01.511Z,3.80
2024-05-09T13:03:29.273Z,4.10
2024-05-09T13:05:59.485Z,3.80
2024-05-09T13:08:30.544Z,4.00
2024-05-09T13:11:01.190Z,4.03
2024-05-09T13:13:29.315Z,3.30
2024-05-09T13:16:00.930Z,3.67
2024-05-09T13:18:28.948Z,3.60
2024-05-09T13:20:58.885Z,3.40
2024-05-09T13:23:26.475Z,3.80
2024-05-09T13:25:58.986Z,3.50
2024-05-09T13:28:26.851Z,3.60
2024-05-09T13:30:57.034Z,3.33
2024-05-09T13:33:25.722Z,3.60
2024-05-09T13:35:56.448Z,3.10
2024-05-09T13:38:24.324Z,3.90
2024-05-09T13:40:54.741Z,3.30
2024-05-09T13:43:25.621Z,4.27
2024-05-09T13:45:57.429Z,3.73
2024-05-09T13:48:25.321Z,3.83
2024-05-09T13:50:55.366Z,4.37
2024-05-09T13:53:22.775Z,3.57
2024-05-09T13:55:52.908Z,3.80
2024-05-09T13:58:20.609Z,4.10
2024-05-09T14:00:53.415Z,4.10
2024-05-09T14:03:21.325Z,4.03
2024-05-09T14:05:52.430Z,4.30
2024-05-09T14:08:22.104Z,3.47
2024-05-09T14:10:53.706Z,4.00
2024-05-09T14:13:21.320Z,4.27
2024-05-09T14:15:54.112Z,4.20
2024-05-09T14:18:21.758Z,3.67
2024-05-09T14:20:51.735Z,3.57
2024-05-09T14:23:19.020Z,4.40
2024-05-09T14:25:52.371Z,3.50
2024-05-09T14:28:20.685Z,4.23
2024-05-09T14:30:53.610Z,3.73
2024-05-09T14:33:26.674Z,3.60
2024-05-09T14:35:57.078Z,3.47
2024-05-09T14:38:24.446Z,3.80
2024-05-09T14:40:54.453Z,3.23
2024-05-09T14:43:23.134Z,3.67
2024-05-09T14:45:56.135Z,3.60
2024-05-09T14:48:23.965Z,3.47
2024-05-09T14:50:53.966Z,3.47
2024-05-09T14:53:23.508Z,4.30
2024-05-09T14:55:53.604Z,2.93
2024-05-09T14:58:21.147Z,3.30
2024-05-09T15:00:52.151Z,4.03
2024-05-09T15:03:22.861Z,3.53
2024-05-09T15:05:53.431Z,3.57
2024-05-09T15:08:20.954Z,3.30
2024-05-09T15:10:52.112Z,3.53
2024-05-09T15:13:20.812Z,3.63
2024-05-09T15:15:51.027Z,3.43
2024-05-09T15:18:18.860Z,3.47
2024-05-09T15:20:51.803Z,3.13
2024-05-09T15:23:19.144Z,2.97
2024-05-09T15:25:49.431Z,3.80
2024-05-09T15:28:20.208Z,3.67
2024-05-09T15:30:48.271Z,3.67
2024-05-09T15:33:18.773Z,2.50
2024-05-09T15:35:51.024Z,3.30
2024-05-09T15:38:21.086Z,3.30
2024-05-09T15:40:49.148Z,3.27
2024-05-09T15:43:19.257Z,3.13
2024-05-09T15:45:50.162Z,3.23
2024-05-09T15:48:17.880Z,3.63
2024-05-09T15:50:51.028Z,3.43
2024-05-09T15:53:18.931Z,3.30
2024-05-09T15:55:49.519Z,3.67
2024-05-09T15:58:17.178Z,3.47
2024-05-09T16:00:50.583Z,3.00
2024-05-09T16:03:21.327Z,3.40
2024-05-09T16:05:57.558Z,3.67
2024-05-09T16:08:25.823Z,3.27
2024-05-09T16:10:56.012Z,3.60
2024-05-09T16:13:23.416Z,3.60
2024-05-09T16:15:54.292Z,3.23
2024-05-09T16:18:21.795Z,3.40
2024-05-09T16:20:59.593Z,3.10
2024-05-09T16:23:26.997Z,2.90
2024-05-09T16:25:57.308Z,3.27
2024-05-09T16:28:26.934Z,3.53
2024-05-09T16:30:58.147Z,4.30
2024-05-09T16:33:26.123Z,3.50
2024-05-09T16:36:00.530Z,3.40
2024-05-09T16:38:28.662Z,3.70
2024-05-09T16:40:58.938Z,3.60
2024-05-09T16:43:28.099Z,3.33
2024-05-09T16:45:58.161Z,3.43
2024-05-09T16:48:25.676Z,3.60
2024-05-09T16:50:55.751Z,3.60
2024-05-09T16:53:26.320Z,3.40
2024-05-09T16:55:56.541Z,3.60
2024-05-09T16:58:24.466Z,3.27
2024-05-09T17:00:54.676Z,3.63
2024-05-09T17:03:23.631Z,3.20
2024-05-09T17:05:53.646Z,3.40
2024-05-09T17:08:21.035Z,3.10
2024-05-09T17:10:54.021Z,3.77
2024-05-09T17:13:24.484Z,4.10
2024-05-09T17:15:54.596Z,3.60
2024-05-09T17:18:24.700Z,3.33
2024-05-09T17:20:52.524Z,3.47
2024-05-09T17:23:22.442Z,3.47
2024-05-09T17:25:55.718Z,3.70
2024-05-09T17:28:23.636Z,3.70
2024-05-09T17:30:53.951Z,3.90
2024-05-09T17:33:22.628Z,3.87
2024-05-09T17:35:52.850Z,4.27
2024-05-09T17:38:22.974Z,3.93
2024-05-09T17:40:56.271Z,4.47
2024-05-09T17:43:23.930Z,3.23
2024-05-09T17:45:54.188Z,3.80
2024-05-09T17:48:21.782Z,2.90
2024-05-09T17:50:52.403Z,3.57
2024-05-09T17:53:20.361Z,4.07
2024-05-09T17:55:53.901Z,3.27
2024-05-09T17:58:24.999Z,3.90
2024-05-09T18:00:55.283Z,3.70
2024-05-09T18:03:23.719Z,3.77
2024-05-09T18:05:54.209Z,3.77
2024-05-09T18:08:21.505Z,3.50
2024-05-09T18:10:54.057Z,4.00
2024-05-09T18:13:26.304Z,3.73
2024-05-09T18:15:56.449Z,4.10
2024-05-09T18:18:23.858Z,5.00
2024-05-09T18:20:53.780Z,4.93
2024-05-09T18:23:21.838Z,5.30
2024-05-09T18:25:54.621Z,5.77
2024-05-09T18:28:24.856Z,5.27
2024-05-09T18:30:55.925Z,4.60
2024-05-09T18:33:24.583Z,4.50
2024-05-09T18:35:55.281Z,5.00
2024-05-09T18:38:26.680Z,3.97
2024-05-09T18:40:57.953Z,3.97
2024-05-09T18:43:38.005Z,4.93
2024-05-09T18:46:12.071Z,6.77
2024-05-09T18:48:40.377Z,6.00
2024-05-09T18:51:10.370Z,7.40
2024-05-09T18:53:37.617Z,7.83
2024-05-09T18:56:09.571Z,4.30
2024-05-09T18:58:39.442Z,4.20
2024-05-09T19:01:09.628Z,4.60
2024-05-09T19:03:37.412Z,4.37
2024-05-09T19:06:07.928Z,4.17
2024-05-09T19:08:35.316Z,4.60
2024-05-09T19:11:05.296Z,5.00
2024-05-09T19:13:32.888Z,5.27
2024-05-09T19:16:06.006Z,4.20
2024-05-09T19:18:33.539Z,4.50
2024-05-09T19:21:03.807Z,5.30
2024-05-09T19:23:35.251Z,4.50
2024-05-09T19:26:08.503Z,4.00
2024-05-09T19:28:35.844Z,4.43
2024-05-09T19:31:08.807Z,4.40
2024-05-09T19:33:36.948Z,4.73
2024-05-09T19:36:08.234Z,4.13
2024-05-09T19:38:36.357Z,4.10
2024-05-09T19:41:06.350Z,4.70
2024-05-09T19:43:36.058Z,5.00
2024-05-09T19:46:09.024Z,5.40
2024-05-09T19:48:37.376Z,4.90
2024-05-09T19:51:07.838Z,5.33
2024-05-09T19:53:35.930Z,5.83
2024-05-09T19:56:06.511Z,4.87
2024-05-09T19:58:33.773Z,5.33
2024-05-09T20:01:04.285Z,3.80
2024-05-09T20:03:36.845Z,4.80
2024-05-09T20:06:07.339Z,4.40
2024-05-09T20:08:34.670Z,4.53
2024-05-09T20:11:04.545Z,5.30
2024-05-09T20:13:31.900Z,4.87
2024-05-09T20:16:01.922Z,4.60
2024-05-09T20:18:30.151Z,4.63
2024-05-09T20:21:04.102Z,5.20
2024-05-09T20:23:31.476Z,5.40
2024-05-09T20:26:01.400Z,4.83
2024-05-09T20:28:29.790Z,5.27
2024-05-09T20:31:00.173Z,4.57
2024-05-09T20:33:28.981Z,4.77
2024-05-09T20:36:01.843Z,5.30
2024-05-09T20:38:32.263Z,6.00
2024-05-09T20:41:02.408Z,5.03
2024-05-09T20:43:29.723Z,4.80
2024-05-09T20:45:59.753Z,5.00
2024-05-09T20:48:27.122Z,4.77
2024-05-09T20:50:57.166Z,5.03
2024-05-09T20:53:24.425Z,6.10
2024-05-09T20:55:57.009Z,5.10
2024-05-09T20:58:24.345Z,6.33
2024-05-09T21:00:54.495Z,7.07
2024-05-09T21:03:21.877Z,7.10
2024-05-09T21:05:52.463Z,5.80
2024-05-09T21:08:19.872Z,6.63
2024-05-09T21:10:49.880Z,6.77
2024-05-09T21:13:19.875Z,6.13
2024-05-09T21:15:50.120Z,6.37
2024-05-09T21:18:17.537Z,5.67
2024-05-09T21:20:47.466Z,6.30
2024-05-09T21:23:15.518Z,6.00
2024-05-09T21:25:45.512Z,5.73
2024-05-09T21:28:14.863Z,5.23
2024-05-09T21:30:47.544Z,5.60
2024-05-09T21:33:15.471Z,6.20
2024-05-09T21:35:46.463Z,6.60
2024-05-09T21:38:15.056Z,6.40
2024-05-09T21:40:45.619Z,7.10
2024-05-09T21:43:13.302Z,6.43
2024-05-09T21:45:43.840Z,6.07
2024-05-09T21:48:14.061Z,5.33
2024-05-09T21:50:44.432Z,6.77
2024-05-09T21:53:12.688Z,7.20
2024-05-09T21:55:43.857Z,6.77
2024-05-09T21:58:12.000Z,7.20
2024-05-09T22:00:42.991Z,6.67
2024-05-09T22:03:11.710Z,8.10
2024-05-09T22:05:45.349Z,7.33
2024-05-09T22:08:13.076Z,8.10
2024-05-09T22:10:43.202Z,8.00
2024-05-09T22:13:10.664Z,7.40
2024-05-09T22:15:41.869Z,8.40
2024-05-09T22:18:10.363Z,6.50
2024-05-09T22:20:46.320Z,5.20
2024-05-09T22:23:15.105Z,5.63
2024-05-09T22:25:45.565Z,6.73
2024-05-09T22:28:14.564Z,7.43
2024-05-09T22:30:46.758Z,6.90
2024-05-09T22:33:15.162Z,6.87
2024-05-09T22:35:48.141Z,8.03
2024-05-09T22:38:15.531Z,8.83
2024-05-09T22:40:48.786Z,6.30
2024-05-09T22:43:19.657Z,5.83
2024-05-09T22:45:50.421Z,7.50
2024-05-09T22:48:18.291Z,6.73
2024-05-09T22:50:51.088Z,6.43
2024-05-09T22:53:18.593Z,6.70
2024-05-09T22:55:48.497Z,5.37
2024-05-09T22:58:15.965Z,6.67
2024-05-09T23:00:46.400Z,6.40
2024-05-09T23:03:15.793Z,6.23
2024-05-09T23:05:46.168Z,6.37
2024-05-09T23:08:16.209Z,6.70
2024-05-09T23:10:46.338Z,7.23
2024-05-09T23:13:13.708Z,6.40
2024-05-09T23:15:43.804Z,6.30
2024-05-09T23:18:11.709Z,6.00
2024-05-09T23:20:41.721Z,6.23
2024-05-09T23:23:11.016Z,6.33
2024-05-09T23:25:44.631Z,7.27
2024-05-09T23:28:12.707Z,8.33
2024-05-09T23:30:42.869Z,8.93
2024-05-09T23:33:11.955Z,9.07
2024-05-09T23:35:44.970Z,6.73
2024-05-09T23:38:12.840Z,7.53
2024-05-09T23:40:45.934Z,8.10
2024-05-09T23:43:14.231Z,6.90
2024-05-09T23:45:44.326Z,17.13
2024-05-09T23:48:11.946Z,14.50
2024-05-09T23:50:42.143Z,8.40
2024-05-09T23:53:10.528Z,7.27
2024-05-09T23:55:41.302Z,7.40
2024-05-09T23:58:11.691Z,7.37
